sensor_id;sensor_type;location;lat;lon;timestamp;pressure;altitude;pressure_sealevel;temperature;humidity
57068;BME280;43391;47.448;18.904;2023-05-29T00:01:18;99676.16;;;12.03;86.89
57068;BME280;43391;47.448;18.904;2023-05-29T00:03:44;99679.47;;;12.07;86.22
57068;BME280;43391;47.448;18.904;2023-05-29T00:06:10;99678.53;;;12.08;85.36
57068;BME280;43391;47.448;18.904;2023-05-29T00:08:35;99681.31;;;12.05;85.56
57068;BME280;43391;47.448;18.904;2023-05-29T00:11:01;99680.41;;;12.06;85.71
57068;BME280;43391;47.448;18.904;2023-05-29T00:13:26;99680.25;;;12.09;85.46
57068;BME280;43391;47.448;18.904;2023-05-29T00:15:52;99675.78;;;12.11;85.37
57068;BME280;43391;47.448;18.904;2023-05-29T00:18:17;99672.16;;;12.14;85.06
57068;BME280;43391;47.448;18.904;2023-05-29T00:20:42;99675.34;;;12.19;84.64
57068;BME280;43391;47.448;18.904;2023-05-29T00:23:08;99681.22;;;12.22;84.36
57068;BME280;43391;47.448;18.904;2023-05-29T00:25:35;99681.88;;;12.26;83.70
57068;BME280;43391;47.448;18.904;2023-05-29T00:28:00;99675.84;;;12.26;84.05
57068;BME280;43391;47.448;18.904;2023-05-29T00:30:25;99683.47;;;12.29;84.04
57068;BME280;43391;47.448;18.904;2023-05-29T00:32:51;99680.94;;;12.27;83.74
57068;BME280;43391;47.448;18.904;2023-05-29T00:35:17;99678.91;;;12.32;84.08
57068;BME280;43391;47.448;18.904;2023-05-29T00:37:43;99672.03;;;12.31;84.48
57068;BME280;43391;47.448;18.904;2023-05-29T00:40:08;99666.25;;;12.26;84.53
57068;BME280;43391;47.448;18.904;2023-05-29T00:42:34;99676.09;;;12.21;85.13
57068;BME280;43391;47.448;18.904;2023-05-29T00:44:59;99688.09;;;12.23;85.51
57068;BME280;43391;47.448;18.904;2023-05-29T00:47:25;99693.56;;;12.19;86.35
57068;BME280;43391;47.448;18.904;2023-05-29T00:49:51;99690.09;;;12.18;85.81
57068;BME280;43391;47.448;18.904;2023-05-29T00:52:17;99682.66;;;12.12;86.44
57068;BME280;43391;47.448;18.904;2023-05-29T00:54:44;99681.25;;;12.06;86.99
57068;BME280;43391;47.448;18.904;2023-05-29T00:57:12;99684.81;;;12.04;87.46
57068;BME280;43391;47.448;18.904;2023-05-29T00:59:37;99681.13;;;12.08;88.23
57068;BME280;43391;47.448;18.904;2023-05-29T01:02:04;99679.31;;;12.10;87.97
57068;BME280;43391;47.448;18.904;2023-05-29T01:04:31;99677.53;;;12.11;87.86
57068;BME280;43391;47.448;18.904;2023-05-29T01:07:02;99670.72;;;12.08;88.16
57068;BME280;43391;47.448;18.904;2023-05-29T01:09:29;99674.41;;;12.04;88.79
57068;BME280;43391;47.448;18.904;2023-05-29T01:14:45;99675.56;;;11.98;89.27
57068;BME280;43391;47.448;18.904;2023-05-29T01:17:19;99673.25;;;11.93;89.25
57068;BME280;43391;47.448;18.904;2023-05-29T01:22:42;99678.09;;;11.83;89.54
57068;BME280;43391;47.448;18.904;2023-05-29T01:25:40;99680.28;;;11.75;90.28
57068;BME280;43391;47.448;18.904;2023-05-29T01:28:12;99671.97;;;11.68;90.68
57068;BME280;43391;47.448;18.904;2023-05-29T01:30:40;99663.00;;;11.58;90.15
57068;BME280;43391;47.448;18.904;2023-05-29T01:33:05;99669.41;;;11.51;90.00
57068;BME280;43391;47.448;18.904;2023-05-29T01:35:31;99662.41;;;11.53;90.93
57068;BME280;43391;47.448;18.904;2023-05-29T01:37:57;99663.06;;;11.56;91.72
57068;BME280;43391;47.448;18.904;2023-05-29T01:40:22;99663.91;;;11.57;91.65
57068;BME280;43391;47.448;18.904;2023-05-29T01:42:49;99660.47;;;11.56;91.24
57068;BME280;43391;47.448;18.904;2023-05-29T01:45:14;99660.47;;;11.56;91.99
57068;BME280;43391;47.448;18.904;2023-05-29T01:47:42;99652.81;;;11.53;92.64
57068;BME280;43391;47.448;18.904;2023-05-29T01:50:08;99652.94;;;11.52;92.45
57068;BME280;43391;47.448;18.904;2023-05-29T01:52:34;99651.22;;;11.51;92.47
57068;BME280;43391;47.448;18.904;2023-05-29T01:55:00;99647.72;;;11.52;92.83
57068;BME280;43391;47.448;18.904;2023-05-29T01:57:25;99643.28;;;11.54;92.92
57068;BME280;43391;47.448;18.904;2023-05-29T01:59:52;99639.75;;;11.55;92.63
57068;BME280;43391;47.448;18.904;2023-05-29T02:02:17;99645.03;;;11.53;92.00
57068;BME280;43391;47.448;18.904;2023-05-29T02:04:43;99636.56;;;11.50;91.40
57068;BME280;43391;47.448;18.904;2023-05-29T02:07:10;99635.03;;;11.46;92.11
57068;BME280;43391;47.448;18.904;2023-05-29T02:09:37;99638.41;;;11.48;91.92
57068;BME280;43391;47.448;18.904;2023-05-29T02:12:03;99637.41;;;11.50;92.21
57068;BME280;43391;47.448;18.904;2023-05-29T02:14:28;99637.31;;;11.52;92.42
57068;BME280;43391;47.448;18.904;2023-05-29T02:16:54;99639.06;;;11.51;92.50
57068;BME280;43391;47.448;18.904;2023-05-29T02:19:19;99639.16;;;11.50;92.99
57068;BME280;43391;47.448;18.904;2023-05-29T02:21:47;99633.38;;;11.45;93.06
57068;BME280;43391;47.448;18.904;2023-05-29T02:24:12;99636.88;;;11.43;93.23
57068;BME280;43391;47.448;18.904;2023-05-29T02:26:38;99638.63;;;11.43;93.16
57068;BME280;43391;47.448;18.904;2023-05-29T02:29:03;99638.16;;;11.36;93.54
57068;BME280;43391;47.448;18.904;2023-05-29T02:31:31;99637.38;;;11.34;92.50
57068;BME280;43391;47.448;18.904;2023-05-29T02:33:56;99635.78;;;11.32;92.51
57068;BME280;43391;47.448;18.904;2023-05-29T02:36:21;99636.56;;;11.34;92.65
57068;BME280;43391;47.448;18.904;2023-05-29T02:38:47;99630.34;;;11.36;92.66
57068;BME280;43391;47.448;18.904;2023-05-29T02:41:12;99632.94;;;11.36;92.83
57068;BME280;43391;47.448;18.904;2023-05-29T02:43:37;99625.22;;;11.35;92.75
57068;BME280;43391;47.448;18.904;2023-05-29T02:46:03;99621.88;;;11.33;93.03
57068;BME280;43391;47.448;18.904;2023-05-29T02:48:28;99621.88;;;11.33;93.17
57068;BME280;43391;47.448;18.904;2023-05-29T02:50:54;99625.31;;;11.33;93.52
57068;BME280;43391;47.448;18.904;2023-05-29T02:53:19;99621.19;;;11.29;94.13
57068;BME280;43391;47.448;18.904;2023-05-29T02:55:45;99622.28;;;11.25;94.15
57068;BME280;43391;47.448;18.904;2023-05-29T02:58:10;99627.38;;;11.26;94.02
57068;BME280;43391;47.448;18.904;2023-05-29T03:00:37;99628.09;;;11.30;93.20
57068;BME280;43391;47.448;18.904;2023-05-29T03:03:02;99628.25;;;11.27;93.93
57068;BME280;43391;47.448;18.904;2023-05-29T03:05:28;99629.16;;;11.26;93.88
57068;BME280;43391;47.448;18.904;2023-05-29T03:07:53;99623.28;;;11.22;93.75
57068;BME280;43391;47.448;18.904;2023-05-29T03:10:19;99628.50;;;11.22;94.18
57068;BME280;43391;47.448;18.904;2023-05-29T03:12:45;99637.09;;;11.23;94.27
57068;BME280;43391;47.448;18.904;2023-05-29T03:15:10;99632.16;;;11.18;95.10
57068;BME280;43391;47.448;18.904;2023-05-29T03:17:35;99623.28;;;11.22;95.32
57068;BME280;43391;47.448;18.904;2023-05-29T03:20:03;99618.00;;;11.24;95.55
57068;BME280;43391;47.448;18.904;2023-05-29T03:22:32;99618.91;;;11.23;95.84
57068;BME280;43391;47.448;18.904;2023-05-29T03:24:57;99616.09;;;11.27;96.04
57068;BME280;43391;47.448;18.904;2023-05-29T03:27:22;99619.88;;;11.38;95.16
57068;BME280;43391;47.448;18.904;2023-05-29T03:29:48;99632.53;;;11.44;94.84
57068;BME280;43391;47.448;18.904;2023-05-29T03:32:13;99632.03;;;11.53;95.09
57068;BME280;43391;47.448;18.904;2023-05-29T03:34:39;99633.31;;;11.62;95.15
57068;BME280;43391;47.448;18.904;2023-05-29T03:37:05;99635.91;;;11.62;95.55
57068;BME280;43391;47.448;18.904;2023-05-29T03:39:31;99632.13;;;11.68;95.07
57068;BME280;43391;47.448;18.904;2023-05-29T03:41:56;99639.91;;;11.68;95.70
57068;BME280;43391;47.448;18.904;2023-05-29T03:44:21;99644.03;;;11.72;95.66
57068;BME280;43391;47.448;18.904;2023-05-29T03:46:47;99647.97;;;11.79;95.33
57068;BME280;43391;47.448;18.904;2023-05-29T03:49:12;99651.75;;;11.90;95.40
57068;BME280;43391;47.448;18.904;2023-05-29T03:51:38;99655.84;;;11.94;95.47
57068;BME280;43391;47.448;18.904;2023-05-29T03:54:03;99660.97;;;11.95;95.98
57068;BME280;43391;47.448;18.904;2023-05-29T03:56:29;99656.44;;;11.99;96.58
57068;BME280;43391;47.448;18.904;2023-05-29T03:58:55;99656.38;;;12.01;96.25
57068;BME280;43391;47.448;18.904;2023-05-29T04:01:20;99665.22;;;12.14;95.51
57068;BME280;43391;47.448;18.904;2023-05-29T04:03:46;99663.94;;;12.21;95.54
57068;BME280;43391;47.448;18.904;2023-05-29T04:06:11;99661.81;;;12.28;96.11
57068;BME280;43391;47.448;18.904;2023-05-29T04:08:38;99656.25;;;12.34;96.11
57068;BME280;43391;47.448;18.904;2023-05-29T04:11:03;99653.38;;;12.39;95.98
57068;BME280;43391;47.448;18.904;2023-05-29T04:13:29;99657.31;;;12.46;95.92
57068;BME280;43391;47.448;18.904;2023-05-29T04:15:54;99658.63;;;12.54;95.80
57068;BME280;43391;47.448;18.904;2023-05-29T04:18:20;99662.66;;;12.59;96.39
57068;BME280;43391;47.448;18.904;2023-05-29T04:20:46;99660.72;;;12.63;95.73
57068;BME280;43391;47.448;18.904;2023-05-29T04:23:13;99660.34;;;12.69;95.51
57068;BME280;43391;47.448;18.904;2023-05-29T04:25:38;99666.88;;;12.76;95.19
57068;BME280;43391;47.448;18.904;2023-05-29T04:28:04;99665.50;;;12.85;94.88
57068;BME280;43391;47.448;18.904;2023-05-29T04:30:30;99669.34;;;12.94;94.16
57068;BME280;43391;47.448;18.904;2023-05-29T04:32:57;99666.38;;;13.00;94.24
57068;BME280;43391;47.448;18.904;2023-05-29T04:35:23;99661.25;;;13.13;94.03
57068;BME280;43391;47.448;18.904;2023-05-29T04:37:48;99666.66;;;13.25;93.55
57068;BME280;43391;47.448;18.904;2023-05-29T04:40:13;99662.63;;;13.34;93.37
57068;BME280;43391;47.448;18.904;2023-05-29T04:42:42;99667.47;;;13.40;92.58
57068;BME280;43391;47.448;18.904;2023-05-29T04:45:10;99667.22;;;13.45;92.23
57068;BME280;43391;47.448;18.904;2023-05-29T04:47:37;99670.75;;;13.58;93.68
57068;BME280;43391;47.448;18.904;2023-05-29T04:50:12;99674.38;;;13.70;92.60
57068;BME280;43391;47.448;18.904;2023-05-29T04:52:38;99679.97;;;13.78;91.94
57068;BME280;43391;47.448;18.904;2023-05-29T04:55:04;99674.25;;;13.86;91.44
57068;BME280;43391;47.448;18.904;2023-05-29T04:57:30;99671.25;;;13.92;90.84
57068;BME280;43391;47.448;18.904;2023-05-29T04:59:55;99674.09;;;14.02;90.54
57068;BME280;43391;47.448;18.904;2023-05-29T05:02:21;99675.94;;;14.15;90.83
57068;BME280;43391;47.448;18.904;2023-05-29T05:04:46;99675.25;;;14.26;90.23
57068;BME280;43391;47.448;18.904;2023-05-29T05:07:12;99680.81;;;14.34;90.32
57068;BME280;43391;47.448;18.904;2023-05-29T05:09:38;99680.00;;;14.46;89.74
57068;BME280;43391;47.448;18.904;2023-05-29T05:12:03;99680.03;;;14.59;88.81
57068;BME280;43391;47.448;18.904;2023-05-29T05:14:29;99680.16;;;14.71;89.60
57068;BME280;43391;47.448;18.904;2023-05-29T05:16:54;99685.22;;;14.87;90.05
57068;BME280;43391;47.448;18.904;2023-05-29T05:19:20;99688.81;;;14.99;89.55
57068;BME280;43391;47.448;18.904;2023-05-29T05:21:45;99688.81;;;15.12;89.74
57068;BME280;43391;47.448;18.904;2023-05-29T05:24:11;99694.00;;;15.25;88.41
57068;BME280;43391;47.448;18.904;2023-05-29T05:26:37;99692.53;;;15.47;89.12
57068;BME280;43391;47.448;18.904;2023-05-29T05:29:02;99692.28;;;15.63;88.65
57068;BME280;43391;47.448;18.904;2023-05-29T05:31:27;99695.50;;;15.79;89.32
57068;BME280;43391;47.448;18.904;2023-05-29T05:33:53;99693.97;;;16.01;88.06
57068;BME280;43391;47.448;18.904;2023-05-29T05:36:18;99690.50;;;16.14;86.62
57068;BME280;43391;47.448;18.904;2023-05-29T05:38:43;99696.50;;;16.27;85.88
57068;BME280;43391;47.448;18.904;2023-05-29T05:41:09;99697.28;;;16.41;83.49
57068;BME280;43391;47.448;18.904;2023-05-29T05:43:35;99692.69;;;16.56;82.80
57068;BME280;43391;47.448;18.904;2023-05-29T05:46:00;99701.22;;;16.71;82.52
57068;BME280;43391;47.448;18.904;2023-05-29T05:48:26;99701.25;;;16.94;77.80
57068;BME280;43391;47.448;18.904;2023-05-29T05:50:51;99703.34;;;17.13;75.49
57068;BME280;43391;47.448;18.904;2023-05-29T05:53:16;99700.88;;;17.34;74.81
57068;BME280;43391;47.448;18.904;2023-05-29T05:55:42;99700.34;;;17.63;73.65
57068;BME280;43391;47.448;18.904;2023-05-29T05:58:08;99692.69;;;17.83;71.41
57068;BME280;43391;47.448;18.904;2023-05-29T06:00:33;99689.94;;;17.96;73.02
57068;BME280;43391;47.448;18.904;2023-05-29T06:02:58;99701.47;;;18.16;73.24
57068;BME280;43391;47.448;18.904;2023-05-29T06:05:25;99705.75;;;18.29;71.08
57068;BME280;43391;47.448;18.904;2023-05-29T06:07:50;99702.56;;;18.46;70.55
57068;BME280;43391;47.448;18.904;2023-05-29T06:10:16;99708.94;;;18.65;70.94
57068;BME280;43391;47.448;18.904;2023-05-29T06:12:41;99711.22;;;18.80;67.88
57068;BME280;43391;47.448;18.904;2023-05-29T06:15:07;99717.16;;;18.93;68.37
57068;BME280;43391;47.448;18.904;2023-05-29T06:17:32;99722.16;;;18.96;67.88
57068;BME280;43391;47.448;18.904;2023-05-29T06:19:58;99718.56;;;18.97;67.82
57068;BME280;43391;47.448;18.904;2023-05-29T06:22:23;99725.50;;;18.98;69.28
57068;BME280;43391;47.448;18.904;2023-05-29T06:24:49;99724.28;;;19.03;69.75
57068;BME280;43391;47.448;18.904;2023-05-29T06:27:15;99722.13;;;19.08;67.16
57068;BME280;43391;47.448;18.904;2023-05-29T06:29:40;99719.53;;;19.18;67.25
57068;BME280;43391;47.448;18.904;2023-05-29T06:32:06;99719.97;;;19.23;66.42
57068;BME280;43391;47.448;18.904;2023-05-29T06:34:31;99726.78;;;19.25;65.56
57068;BME280;43391;47.448;18.904;2023-05-29T06:36:56;99726.38;;;19.30;67.58
57068;BME280;43391;47.448;18.904;2023-05-29T06:39:22;99736.63;;;19.33;66.27
57068;BME280;43391;47.448;18.904;2023-05-29T06:41:47;99733.34;;;19.41;65.85
57068;BME280;43391;47.448;18.904;2023-05-29T06:44:12;99737.97;;;19.49;64.24
57068;BME280;43391;47.448;18.904;2023-05-29T06:46:38;99727.03;;;19.54;63.08
57068;BME280;43391;47.448;18.904;2023-05-29T06:49:03;99737.03;;;19.60;61.38
57068;BME280;43391;47.448;18.904;2023-05-29T06:51:29;99740.13;;;19.65;63.07
57068;BME280;43391;47.448;18.904;2023-05-29T06:53:55;99730.97;;;19.69;62.12
57068;BME280;43391;47.448;18.904;2023-05-29T06:56:20;99737.22;;;19.78;63.27
57068;BME280;43391;47.448;18.904;2023-05-29T06:58:47;99740.59;;;19.90;63.92
57068;BME280;43391;47.448;18.904;2023-05-29T07:01:12;99735.97;;;20.23;60.91
57068;BME280;43391;47.448;18.904;2023-05-29T07:03:37;99734.03;;;20.65;61.93
57068;BME280;43391;47.448;18.904;2023-05-29T07:06:03;99740.53;;;21.00;57.39
57068;BME280;43391;47.448;18.904;2023-05-29T07:08:29;99743.03;;;21.02;56.37
57068;BME280;43391;47.448;18.904;2023-05-29T07:10:55;99735.13;;;20.82;58.03
57068;BME280;43391;47.448;18.904;2023-05-29T07:13:20;99735.41;;;20.69;57.64
57068;BME280;43391;47.448;18.904;2023-05-29T07:15:46;99737.09;;;20.60;58.89
57068;BME280;43391;47.448;18.904;2023-05-29T07:18:16;99737.22;;;20.49;59.01
57068;BME280;43391;47.448;18.904;2023-05-29T07:20:42;99741.25;;;20.43;59.65
57068;BME280;43391;47.448;18.904;2023-05-29T07:23:07;99741.13;;;20.44;60.82
57068;BME280;43391;47.448;18.904;2023-05-29T07:25:33;99735.56;;;20.57;61.10
57068;BME280;43391;47.448;18.904;2023-05-29T07:27:58;99745.81;;;20.70;60.56
57068;BME280;43391;47.448;18.904;2023-05-29T07:30:23;99746.09;;;20.77;59.62
57068;BME280;43391;47.448;18.904;2023-05-29T07:32:49;99748.75;;;20.77;60.50
57068;BME280;43391;47.448;18.904;2023-05-29T07:35:14;99757.78;;;20.75;59.59
57068;BME280;43391;47.448;18.904;2023-05-29T07:37:40;99767.78;;;20.71;61.13
57068;BME280;43391;47.448;18.904;2023-05-29T07:40:06;99767.34;;;20.66;60.49
57068;BME280;43391;47.448;18.904;2023-05-29T07:42:33;99771.38;;;20.60;59.61
57068;BME280;43391;47.448;18.904;2023-05-29T07:44:58;99777.19;;;20.54;60.33
57068;BME280;43391;47.448;18.904;2023-05-29T07:47:24;99782.31;;;20.45;60.62
57068;BME280;43391;47.448;18.904;2023-05-29T07:49:49;99785.78;;;20.46;63.13
57068;BME280;43391;47.448;18.904;2023-05-29T07:52:15;99794.00;;;20.53;61.87
57068;BME280;43391;47.448;18.904;2023-05-29T07:54:43;99780.13;;;20.70;62.85
57068;BME280;43391;47.448;18.904;2023-05-29T07:57:09;99790.09;;;21.06;61.77
57068;BME280;43391;47.448;18.904;2023-05-29T07:59:40;99790.28;;;21.53;62.32
57068;BME280;43391;47.448;18.904;2023-05-29T08:02:07;99783.94;;;21.83;60.37
57068;BME280;43391;47.448;18.904;2023-05-29T08:04:32;99785.25;;;21.97;59.02
57068;BME280;43391;47.448;18.904;2023-05-29T08:07:00;99786.94;;;22.16;58.02
57068;BME280;43391;47.448;18.904;2023-05-29T08:09:26;99786.13;;;22.16;57.28
57068;BME280;43391;47.448;18.904;2023-05-29T08:11:51;99773.81;;;22.25;58.97
57068;BME280;43391;47.448;18.904;2023-05-29T08:14:17;99781.81;;;22.33;58.62
57068;BME280;43391;47.448;18.904;2023-05-29T08:16:42;99774.59;;;22.35;58.45
57068;BME280;43391;47.448;18.904;2023-05-29T08:19:08;99775.44;;;22.54;58.37
57068;BME280;43391;47.448;18.904;2023-05-29T08:21:33;99781.44;;;22.56;57.61
57068;BME280;43391;47.448;18.904;2023-05-29T08:23:59;99785.72;;;22.57;56.97
57068;BME280;43391;47.448;18.904;2023-05-29T08:26:26;99786.03;;;22.54;57.56
57068;BME280;43391;47.448;18.904;2023-05-29T08:28:51;99780.50;;;22.47;56.78
57068;BME280;43391;47.448;18.904;2023-05-29T08:31:17;99782.28;;;22.28;56.91
57068;BME280;43391;47.448;18.904;2023-05-29T08:34:01;99776.00;;;22.29;57.54
57068;BME280;43391;47.448;18.904;2023-05-29T08:36:26;99780.69;;;22.36;57.73
57068;BME280;43391;47.448;18.904;2023-05-29T08:38:51;99781.91;;;22.41;58.09
57068;BME280;43391;47.448;18.904;2023-05-29T08:41:51;99783.34;;;22.36;58.69
57068;BME280;43391;47.448;18.904;2023-05-29T08:44:22;99772.75;;;22.36;58.01
57068;BME280;43391;47.448;18.904;2023-05-29T08:46:55;99770.88;;;22.28;58.07
57068;BME280;43391;47.448;18.904;2023-05-29T08:49:21;99772.91;;;22.16;57.96
57068;BME280;43391;47.448;18.904;2023-05-29T08:52:08;99770.28;;;22.16;58.21
57068;BME280;43391;47.448;18.904;2023-05-29T08:54:35;99776.22;;;22.18;57.88
57068;BME280;43391;47.448;18.904;2023-05-29T08:57:00;99771.69;;;22.10;58.01
57068;BME280;43391;47.448;18.904;2023-05-29T08:59:27;99772.44;;;22.21;58.71
57068;BME280;43391;47.448;18.904;2023-05-29T09:01:54;99768.53;;;22.25;58.37
57068;BME280;43391;47.448;18.904;2023-05-29T09:04:20;99774.28;;;22.38;58.91
57068;BME280;43391;47.448;18.904;2023-05-29T09:06:46;99767.72;;;22.42;59.49
57068;BME280;43391;47.448;18.904;2023-05-29T09:09:13;99772.94;;;22.34;58.69
57068;BME280;43391;47.448;18.904;2023-05-29T09:11:39;99778.81;;;22.46;59.07
57068;BME280;43391;47.448;18.904;2023-05-29T09:14:05;99773.34;;;22.58;57.04
57068;BME280;43391;47.448;18.904;2023-05-29T09:16:30;99774.09;;;22.68;56.63
57068;BME280;43391;47.448;18.904;2023-05-29T09:19:06;99780.44;;;22.75;57.22
57068;BME280;43391;47.448;18.904;2023-05-29T09:21:35;99778.91;;;22.91;57.27
57068;BME280;43391;47.448;18.904;2023-05-29T09:24:04;99766.91;;;23.05;56.78
57068;BME280;43391;47.448;18.904;2023-05-29T09:26:31;99767.50;;;23.17;54.75
57068;BME280;43391;47.448;18.904;2023-05-29T09:28:57;99774.94;;;23.13;55.88
57068;BME280;43391;47.448;18.904;2023-05-29T09:31:23;99779.22;;;23.14;56.31
57068;BME280;43391;47.448;18.904;2023-05-29T09:33:49;99774.94;;;23.13;54.89
57068;BME280;43391;47.448;18.904;2023-05-29T09:36:24;99779.44;;;23.21;55.68
57068;BME280;43391;47.448;18.904;2023-05-29T09:38:50;99779.81;;;23.26;54.97
57068;BME280;43391;47.448;18.904;2023-05-29T09:41:23;99774.19;;;23.29;54.55
57068;BME280;43391;47.448;18.904;2023-05-29T09:43:51;99777.81;;;23.28;53.67
57068;BME280;43391;47.448;18.904;2023-05-29T09:46:19;99775.53;;;23.07;54.67
57068;BME280;43391;47.448;18.904;2023-05-29T09:48:45;99778.03;;;23.08;53.98
57068;BME280;43391;47.448;18.904;2023-05-29T09:51:21;99777.22;;;23.08;55.57
57068;BME280;43391;47.448;18.904;2023-05-29T09:53:50;99789.63;;;22.89;55.93
57068;BME280;43391;47.448;18.904;2023-05-29T09:56:22;99779.91;;;22.90;56.55
57068;BME280;43391;47.448;18.904;2023-05-29T09:58:50;99776.44;;;23.16;58.37
57068;BME280;43391;47.448;18.904;2023-05-29T10:01:16;99788.88;;;23.42;57.08
57068;BME280;43391;47.448;18.904;2023-05-29T10:03:42;99782.66;;;23.59;56.49
57068;BME280;43391;47.448;18.904;2023-05-29T10:06:12;99793.09;;;23.61;54.96
57068;BME280;43391;47.448;18.904;2023-05-29T10:08:46;99790.22;;;23.89;55.17
57068;BME280;43391;47.448;18.904;2023-05-29T10:11:18;99799.31;;;24.13;53.63
57068;BME280;43391;47.448;18.904;2023-05-29T10:13:49;99795.22;;;24.44;54.08
57068;BME280;43391;47.448;18.904;2023-05-29T10:16:20;99794.25;;;24.53;52.78
57068;BME280;43391;47.448;18.904;2023-05-29T10:18:50;99797.06;;;24.51;52.93
57068;BME280;43391;47.448;18.904;2023-05-29T10:21:20;99793.41;;;24.61;51.88
57068;BME280;43391;47.448;18.904;2023-05-29T10:23:48;99792.25;;;24.72;51.71
57068;BME280;43391;47.448;18.904;2023-05-29T10:26:27;99803.50;;;24.40;50.24
57068;BME280;43391;47.448;18.904;2023-05-29T10:32:23;99798.19;;;23.89;52.52
57068;BME280;43391;47.448;18.904;2023-05-29T10:37:51;99793.19;;;23.86;52.37
57068;BME280;43391;47.448;18.904;2023-05-29T10:40:22;99793.38;;;23.84;52.68
57068;BME280;43391;47.448;18.904;2023-05-29T10:42:49;99785.88;;;23.71;52.07
57068;BME280;43391;47.448;18.904;2023-05-29T10:50:38;99781.41;;;23.19;54.72
57068;BME280;43391;47.448;18.904;2023-05-29T10:53:08;99778.88;;;23.09;55.52
57068;BME280;43391;47.448;18.904;2023-05-29T10:55:38;99781.91;;;22.96;55.45
57068;BME280;43391;47.448;18.904;2023-05-29T10:58:24;99775.94;;;22.94;56.78
57068;BME280;43391;47.448;18.904;2023-05-29T11:00:50;99782.22;;;22.93;56.63
57068;BME280;43391;47.448;18.904;2023-05-29T11:03:22;99772.72;;;22.82;56.47
57068;BME280;43391;47.448;18.904;2023-05-29T11:06:01;99774.22;;;22.85;57.97
57068;BME280;43391;47.448;18.904;2023-05-29T11:08:34;99773.63;;;22.73;56.45
57068;BME280;43391;47.448;18.904;2023-05-29T11:11:03;99771.59;;;22.66;55.82
57068;BME280;43391;47.448;18.904;2023-05-29T11:13:34;99776.00;;;22.58;56.79
57068;BME280;43391;47.448;18.904;2023-05-29T11:18:56;99773.91;;;22.51;61.54
57068;BME280;43391;47.448;18.904;2023-05-29T11:21:58;99772.00;;;22.25;60.57
57068;BME280;43391;47.448;18.904;2023-05-29T11:24:27;99775.97;;;22.11;62.38
57068;BME280;43391;47.448;18.904;2023-05-29T11:26:56;99772.13;;;22.06;62.03
57068;BME280;43391;47.448;18.904;2023-05-29T11:29:28;99778.69;;;22.01;61.89
57068;BME280;43391;47.448;18.904;2023-05-29T11:32:05;99767.13;;;22.02;62.80
57068;BME280;43391;47.448;18.904;2023-05-29T11:34:32;99763.50;;;22.03;63.43
57068;BME280;43391;47.448;18.904;2023-05-29T11:37:02;99767.28;;;22.01;62.71
57068;BME280;43391;47.448;18.904;2023-05-29T11:39:28;99766.75;;;21.97;63.02
57068;BME280;43391;47.448;18.904;2023-05-29T11:41:55;99762.59;;;21.95;63.61
57068;BME280;43391;47.448;18.904;2023-05-29T11:44:21;99760.25;;;21.92;61.90
57068;BME280;43391;47.448;18.904;2023-05-29T11:49:28;99754.97;;;21.92;64.30
57068;BME280;43391;47.448;18.904;2023-05-29T11:51:54;99749.59;;;21.83;64.11
57068;BME280;43391;47.448;18.904;2023-05-29T11:54:19;99746.66;;;21.86;64.54
57068;BME280;43391;47.448;18.904;2023-05-29T11:56:47;99737.75;;;21.87;64.98
57068;BME280;43391;47.448;18.904;2023-05-29T11:59:12;99729.09;;;21.95;64.57
57068;BME280;43391;47.448;18.904;2023-05-29T12:01:38;99721.19;;;22.13;64.31
57068;BME280;43391;47.448;18.904;2023-05-29T12:04:13;99717.78;;;22.21;63.14
57068;BME280;43391;47.448;18.904;2023-05-29T12:06:39;99721.09;;;22.41;63.83
57068;BME280;43391;47.448;18.904;2023-05-29T12:09:07;99709.09;;;22.65;63.47
57068;BME280;43391;47.448;18.904;2023-05-29T12:11:34;99711.91;;;22.90;62.49
57068;BME280;43391;47.448;18.904;2023-05-29T12:14:01;99708.53;;;23.06;61.16
57068;BME280;43391;47.448;18.904;2023-05-29T12:16:27;99717.72;;;23.20;60.00
57068;BME280;43391;47.448;18.904;2023-05-29T12:18:54;99708.97;;;23.28;58.13
57068;BME280;43391;47.448;18.904;2023-05-29T12:21:21;99700.44;;;23.34;57.73
57068;BME280;43391;47.448;18.904;2023-05-29T12:23:47;99706.47;;;23.53;56.87
57068;BME280;43391;47.448;18.904;2023-05-29T12:26:13;99701.97;;;23.97;55.76
57068;BME280;43391;47.448;18.904;2023-05-29T12:28:44;99700.38;;;24.54;52.15
57068;BME280;43391;47.448;18.904;2023-05-29T12:31:10;99702.50;;;25.00;51.06
57068;BME280;43391;47.448;18.904;2023-05-29T12:33:36;99707.59;;;25.10;48.87
57068;BME280;43391;47.448;18.904;2023-05-29T12:36:06;99705.44;;;25.22;49.41
57068;BME280;43391;47.448;18.904;2023-05-29T12:38:46;99697.31;;;25.15;53.05
57068;BME280;43391;47.448;18.904;2023-05-29T12:41:28;99699.47;;;25.12;51.11
57068;BME280;43391;47.448;18.904;2023-05-29T12:43:57;99695.34;;;25.09;52.60
57068;BME280;43391;47.448;18.904;2023-05-29T12:46:26;99695.38;;;25.01;51.40
57068;BME280;43391;47.448;18.904;2023-05-29T12:48:54;99700.69;;;24.92;53.95
57068;BME280;43391;47.448;18.904;2023-05-29T12:51:25;99697.22;;;24.84;53.35
57068;BME280;43391;47.448;18.904;2023-05-29T12:53:50;99697.72;;;24.71;52.20
57068;BME280;43391;47.448;18.904;2023-05-29T12:56:15;99693.72;;;24.83;51.55
57068;BME280;43391;47.448;18.904;2023-05-29T12:58:41;99699.78;;;25.25;49.71
57068;BME280;43391;47.448;18.904;2023-05-29T13:01:12;99695.25;;;25.42;48.03
57068;BME280;43391;47.448;18.904;2023-05-29T13:03:38;99694.72;;;25.55;46.04
57068;BME280;43391;47.448;18.904;2023-05-29T13:06:04;99695.97;;;25.68;46.87
57068;BME280;43391;47.448;18.904;2023-05-29T13:08:30;99691.50;;;25.92;49.36
57068;BME280;43391;47.448;18.904;2023-05-29T13:10:55;99689.63;;;26.00;48.17
57068;BME280;43391;47.448;18.904;2023-05-29T13:13:20;99689.44;;;26.02;48.15